createdAt,value
2022-09-21T00:00:59.163Z,319.06
2022-09-21T00:01:59.141Z,319.06
2022-09-21T00:02:59.128Z,327.53
2022-09-21T00:03:59.134Z,306.35
2022-09-21T00:04:59.135Z,306.35
2022-09-21T00:05:59.164Z,306.35
2022-09-21T00:06:59.129Z,306.35
2022-09-21T00:07:59.133Z,306.35
2022-09-21T00:08:59.135Z,306.35
2022-09-21T00:09:59.139Z,306.35
2022-09-21T00:10:59.137Z,306.35
2022-09-21T00:11:59.142Z,306.35
2022-09-21T00:12:59.143Z,306.35
2022-09-21T00:13:59.143Z,306.35
2022-09-21T00:14:59.146Z,306.35
2022-09-21T00:15:59.143Z,348.71
2022-09-21T00:16:59.190Z,340.24
2022-09-21T00:17:59.147Z,330.35
2022-09-21T00:18:59.145Z,265.41
2022-09-21T00:19:59.151Z,302.12
2022-09-21T00:20:59.148Z,347.29
2022-09-21T00:21:59.239Z,303.53
2022-09-21T00:22:59.155Z,338.82
2022-09-21T00:23:59.155Z,350.12
2022-09-21T00:24:59.159Z,12.71
2022-09-21T00:25:59.151Z,355.76
2022-09-21T00:26:59.152Z,324.71
2022-09-21T00:27:59.158Z,350.12
2022-09-21T00:28:59.171Z,357.18
2022-09-21T00:29:59.161Z,21.18
2022-09-21T00:30:59.164Z,4.24
2022-09-21T00:31:59.198Z,345.88
2022-09-21T00:32:59.177Z,357.18
2022-09-21T00:33:59.164Z,293.65
2022-09-21T00:34:59.169Z,7.06
2022-09-21T00:35:59.171Z,350.12
2022-09-21T00:36:59.172Z,312
2022-09-21T00:37:59.196Z,354.35
2022-09-21T00:38:59.175Z,354.35
2022-09-21T00:39:59.228Z,354.35
2022-09-21T00:40:59.180Z,354.35
2022-09-21T00:41:59.172Z,354.35
2022-09-21T00:42:59.174Z,354.35
2022-09-21T00:43:59.183Z,278.12
2022-09-21T00:44:59.189Z,278.12
2022-09-21T00:45:59.260Z,278.12
2022-09-21T00:46:59.187Z,278.12
2022-09-21T00:47:59.185Z,278.12
2022-09-21T00:48:59.188Z,278.12
2022-09-21T00:49:59.186Z,278.12
2022-09-21T00:50:59.193Z,278.12
2022-09-21T00:51:59.192Z,278.12
2022-09-21T00:52:59.188Z,241.41
2022-09-21T00:53:59.210Z,228.71
2022-09-21T00:54:59.198Z,228.71
2022-09-21T00:55:59.203Z,228.71
2022-09-21T00:56:59.191Z,228.71
2022-09-21T00:57:59.194Z,228.71
2022-09-21T00:58:59.199Z,228.71
2022-09-21T00:59:59.196Z,228.71
2022-09-21T01:00:59.256Z,228.71
2022-09-21T01:01:59.231Z,228.71
2022-09-21T01:02:59.214Z,228.71
2022-09-21T01:03:59.204Z,228.71
2022-09-21T01:04:59.208Z,228.71
2022-09-21T01:05:59.215Z,228.71
2022-09-21T01:06:59.220Z,228.71
2022-09-21T01:07:59.216Z,228.71
2022-09-21T01:08:59.212Z,228.71
2022-09-21T01:09:59.232Z,228.71
2022-09-21T01:10:59.209Z,228.71
2022-09-21T01:11:59.204Z,228.71
2022-09-21T01:12:59.211Z,228.71
2022-09-21T01:13:59.205Z,228.71
2022-09-21T01:14:59.212Z,228.71
2022-09-21T01:15:59.260Z,228.71
2022-09-21T01:16:59.220Z,228.71
2022-09-21T01:17:59.208Z,228.71
2022-09-21T01:18:59.212Z,228.71
2022-09-21T01:19:59.214Z,228.71
2022-09-21T01:20:59.215Z,228.71
2022-09-21T01:21:59.219Z,228.71
2022-09-21T01:22:59.217Z,228.71
2022-09-21T01:23:59.220Z,228.71
2022-09-21T01:24:59.214Z,228.71
2022-09-21T01:25:59.244Z,228.71
2022-09-21T01:26:59.228Z,228.71
2022-09-21T01:27:59.220Z,228.71
2022-09-21T01:28:59.221Z,228.71
2022-09-21T01:29:59.234Z,228.71
2022-09-21T01:30:59.230Z,228.71
2022-09-21T01:31:59.227Z,228.71
2022-09-21T01:32:59.233Z,228.71
2022-09-21T01:33:59.229Z,285.18
2022-09-21T01:34:59.233Z,285.18
2022-09-21T01:35:59.242Z,326.12
2022-09-21T01:36:59.230Z,326.12
2022-09-21T01:37:59.237Z,326.12
2022-09-21T01:38:59.231Z,326.12
2022-09-21T01:39:59.289Z,326.12
2022-09-21T01:40:59.242Z,326.12
2022-09-21T01:41:59.260Z,326.12
2022-09-21T01:42:59.243Z,326.12
2022-09-21T01:43:59.242Z,326.12
2022-09-21T01:44:59.242Z,326.12
2022-09-21T01:45:59.287Z,326.12
2022-09-21T01:46:59.244Z,326.12
2022-09-21T01:47:59.243Z,326.12
2022-09-21T01:48:59.248Z,326.12
2022-09-21T01:49:59.251Z,326.12
2022-09-21T01:50:59.251Z,326.12
2022-09-21T01:51:59.249Z,326.12
2022-09-21T01:52:59.248Z,326.12
2022-09-21T01:53:59.249Z,326.12
2022-09-21T01:54:59.274Z,326.12
2022-09-21T01:55:59.256Z,326.12
2022-09-21T01:56:59.252Z,326.12
2022-09-21T01:57:59.279Z,326.12
2022-09-21T01:58:59.251Z,326.12
2022-09-21T01:59:59.248Z,326.12
2022-09-21T02:00:59.298Z,326.12
2022-09-21T02:01:59.300Z,326.12
2022-09-21T02:02:59.258Z,326.12
2022-09-21T02:03:59.258Z,326.12
2022-09-21T02:04:59.258Z,326.12
2022-09-21T02:05:59.258Z,326.12
2022-09-21T02:06:59.258Z,326.12
2022-09-21T02:07:59.255Z,326.12
2022-09-21T02:08:59.267Z,326.12
2022-09-21T02:09:59.259Z,326.12
2022-09-21T02:10:59.258Z,326.12
2022-09-21T02:11:59.268Z,326.12
2022-09-21T02:12:59.268Z,326.12
2022-09-21T02:13:59.290Z,326.12
2022-09-21T02:14:59.259Z,326.12
2022-09-21T02:15:59.285Z,326.12
2022-09-21T02:16:59.267Z,326.12
2022-09-21T02:17:59.262Z,326.12
2022-09-21T02:18:59.265Z,326.12
2022-09-21T02:19:59.264Z,326.12
2022-09-21T02:20:59.268Z,326.12
2022-09-21T02:21:59.264Z,326.12
2022-09-21T02:22:59.266Z,326.12
2022-09-21T02:23:59.255Z,326.12
2022-09-21T02:24:59.259Z,326.12
2022-09-21T02:25:59.271Z,326.12
2022-09-21T02:26:59.260Z,326.12
2022-09-21T02:27:59.267Z,326.12
2022-09-21T02:28:59.266Z,326.12
2022-09-21T02:29:59.286Z,326.12
2022-09-21T02:30:59.329Z,326.12
2022-09-21T02:31:59.258Z,326.12
2022-09-21T02:32:59.269Z,326.12
2022-09-21T02:33:59.259Z,326.12
2022-09-21T02:34:59.268Z,326.12
2022-09-21T02:35:59.262Z,326.12
2022-09-21T02:36:59.272Z,326.12
2022-09-21T02:37:59.264Z,326.12
2022-09-21T02:38:59.268Z,326.12
2022-09-21T02:39:59.354Z,326.12
2022-09-21T02:40:59.260Z,326.12
2022-09-21T02:41:59.263Z,326.12
2022-09-21T02:42:59.270Z,326.12
2022-09-21T02:43:59.266Z,326.12
2022-09-21T02:44:59.270Z,326.12
2022-09-21T02:45:59.338Z,326.12
2022-09-21T02:46:59.270Z,326.12
2022-09-21T02:47:59.274Z,326.12
2022-09-21T02:48:59.277Z,326.12
2022-09-21T02:49:59.272Z,326.12
2022-09-21T02:50:59.281Z,326.12
2022-09-21T02:51:59.276Z,326.12
2022-09-21T02:52:59.288Z,326.12
2022-09-21T02:53:59.283Z,326.12
2022-09-21T02:54:59.284Z,326.12
2022-09-21T02:55:59.284Z,326.12
2022-09-21T02:56:59.295Z,326.12
2022-09-21T02:57:59.286Z,326.12
2022-09-21T02:58:59.285Z,326.12
2022-09-21T02:59:59.287Z,326.12
2022-09-21T03:00:59.414Z,326.12
2022-09-21T03:01:59.332Z,326.12
2022-09-21T03:02:59.297Z,326.12
2022-09-21T03:03:59.292Z,326.12
2022-09-21T03:04:59.299Z,326.12
2022-09-21T03:05:59.295Z,326.12
2022-09-21T03:06:59.301Z,326.12
2022-09-21T03:07:59.305Z,326.12
2022-09-21T03:08:59.296Z,326.12
2022-09-21T03:09:59.299Z,326.12
2022-09-21T03:10:59.307Z,326.12
2022-09-21T03:11:59.305Z,326.12
2022-09-21T03:12:59.304Z,326.12
2022-09-21T03:13:59.300Z,326.12
2022-09-21T03:14:59.301Z,326.12
2022-09-21T03:15:59.333Z,326.12
2022-09-21T03:16:59.311Z,326.12
2022-09-21T03:17:59.331Z,326.12
2022-09-21T03:18:59.304Z,326.12
2022-09-21T03:19:59.300Z,326.12
2022-09-21T03:20:59.304Z,326.12
2022-09-21T03:21:59.309Z,326.12
2022-09-21T03:22:59.307Z,326.12
2022-09-21T03:23:59.314Z,326.12
2022-09-21T03:24:59.310Z,326.12
2022-09-21T03:25:59.321Z,326.12
2022-09-21T03:26:59.314Z,326.12
2022-09-21T03:27:59.313Z,326.12
2022-09-21T03:28:59.322Z,326.12
2022-09-21T03:30:02.111Z,326.12
2022-09-21T03:30:59.393Z,326.12
2022-09-21T03:31:59.325Z,326.12
2022-09-21T03:32:59.324Z,326.12
2022-09-21T03:33:59.353Z,326.12
2022-09-21T03:34:59.325Z,326.12
2022-09-21T03:35:59.328Z,326.12
2022-09-21T03:36:59.335Z,326.12
2022-09-21T03:37:59.331Z,326.12
2022-09-21T03:38:59.333Z,326.12
2022-09-21T03:39:59.413Z,326.12
2022-09-21T03:40:59.347Z,326.12
2022-09-21T03:41:59.342Z,326.12
2022-09-21T03:42:59.341Z,326.12
2022-09-21T03:43:59.342Z,326.12
2022-09-21T03:44:59.344Z,326.12
2022-09-21T03:45:59.402Z,326.12
2022-09-21T03:46:59.356Z,326.12
2022-09-21T03:47:59.356Z,326.12
2022-09-21T03:48:59.364Z,326.12
2022-09-21T03:49:59.371Z,326.12
2022-09-21T03:50:59.351Z,326.12
2022-09-21T03:51:59.362Z,326.12
2022-09-21T03:52:59.362Z,326.12
2022-09-21T03:53:59.354Z,326.12
2022-09-21T03:54:59.358Z,326.12
2022-09-21T03:55:59.360Z,326.12
2022-09-21T03:56:59.363Z,326.12
2022-09-21T03:57:59.361Z,326.12
2022-09-21T03:58:59.366Z,326.12
2022-09-21T03:59:59.365Z,326.12
2022-09-21T04:00:59.359Z,326.12
2022-09-21T04:01:59.366Z,326.12
2022-09-21T04:02:59.396Z,326.12
2022-09-21T04:03:59.370Z,326.12
2022-09-21T04:04:59.369Z,326.12
2022-09-21T04:05:59.405Z,326.12
2022-09-21T04:06:59.367Z,326.12
2022-09-21T04:07:59.371Z,326.12
2022-09-21T04:08:59.375Z,326.12
2022-09-21T04:09:59.378Z,326.12
2022-09-21T04:10:59.382Z,326.12
2022-09-21T04:11:59.384Z,326.12
2022-09-21T04:12:59.389Z,326.12
2022-09-21T04:13:59.384Z,326.12
2022-09-21T04:14:59.386Z,326.12
2022-09-21T04:15:59.435Z,326.12
2022-09-21T04:16:59.388Z,326.12
2022-09-21T04:17:59.397Z,326.12
2022-09-21T04:18:59.387Z,326.12
2022-09-21T04:19:59.398Z,326.12
2022-09-21T04:20:59.390Z,326.12
2022-09-21T04:21:59.414Z,326.12
2022-09-21T04:22:59.391Z,326.12
2022-09-21T04:23:59.394Z,326.12
2022-09-21T04:24:59.391Z,326.12
2022-09-21T04:25:59.395Z,326.12
2022-09-21T04:26:59.396Z,326.12
2022-09-21T04:27:59.397Z,326.12
2022-09-21T04:28:59.402Z,326.12
2022-09-21T04:29:59.401Z,326.12
2022-09-21T04:30:59.427Z,326.12
2022-09-21T04:31:59.406Z,326.12
2022-09-21T04:32:59.406Z,326.12
2022-09-21T04:33:59.414Z,326.12
2022-09-21T04:34:59.414Z,326.12
2022-09-21T04:35:59.415Z,326.12
2022-09-21T04:36:59.406Z,326.12
2022-09-21T04:37:59.435Z,326.12
2022-09-21T04:38:59.421Z,326.12
2022-09-21T04:39:59.469Z,326.12
2022-09-21T04:40:59.420Z,326.12
2022-09-21T04:41:59.420Z,326.12
2022-09-21T04:42:59.418Z,326.12
2022-09-21T04:43:59.424Z,326.12
2022-09-21T04:44:59.431Z,326.12
2022-09-21T04:45:59.465Z,326.12
2022-09-21T04:46:59.424Z,326.12
2022-09-21T04:47:59.433Z,326.12
2022-09-21T04:48:59.441Z,326.12
2022-09-21T04:49:59.428Z,326.12
2022-09-21T04:50:59.428Z,326.12
2022-09-21T04:51:59.435Z,326.12
2022-09-21T04:52:59.431Z,326.12
2022-09-21T04:53:59.457Z,326.12
2022-09-21T04:54:59.427Z,326.12
2022-09-21T04:55:59.438Z,326.12
2022-09-21T04:56:59.428Z,326.12
2022-09-21T04:57:59.435Z,326.12
2022-09-21T04:58:59.433Z,326.12
2022-09-21T04:59:59.434Z,326.12
2022-09-21T05:00:59.445Z,326.12
2022-09-21T05:01:59.440Z,326.12
2022-09-21T05:02:59.437Z,326.12
2022-09-21T05:03:59.459Z,326.12
2022-09-21T05:04:59.441Z,326.12
2022-09-21T05:05:59.447Z,326.12
2022-09-21T05:06:59.450Z,326.12
2022-09-21T05:07:59.447Z,326.12
2022-09-21T05:08:59.446Z,326.12
2022-09-21T05:09:59.465Z,326.12
2022-09-21T05:10:59.450Z,326.12
2022-09-21T05:11:59.452Z,326.12
2022-09-21T05:12:59.453Z,326.12
2022-09-21T05:13:59.457Z,326.12
2022-09-21T05:14:59.451Z,326.12
2022-09-21T05:15:59.517Z,326.12
2022-09-21T05:16:59.452Z,326.12
2022-09-21T05:17:59.457Z,326.12
2022-09-21T05:18:59.455Z,326.12
2022-09-21T05:19:59.462Z,326.12
2022-09-21T05:20:59.455Z,326.12
2022-09-21T05:21:59.458Z,326.12
2022-09-21T05:22:59.453Z,326.12
2022-09-21T05:23:59.462Z,326.12
2022-09-21T05:24:59.469Z,326.12
2022-09-21T05:25:59.487Z,326.12
2022-09-21T05:26:59.475Z,326.12
2022-09-21T05:27:59.468Z,326.12
2022-09-21T05:28:59.480Z,326.12
2022-09-21T05:29:59.468Z,326.12
2022-09-21T05:31:16.496Z,326.12
2022-09-21T05:31:59.469Z,326.12
2022-09-21T05:32:59.474Z,326.12
2022-09-21T05:33:59.494Z,326.12
2022-09-21T05:34:59.516Z,326.12
2022-09-21T05:35:59.470Z,326.12
2022-09-21T05:36:59.475Z,326.12
2022-09-21T05:37:59.476Z,326.12
2022-09-21T05:38:59.476Z,326.12
2022-09-21T05:39:59.515Z,326.12
2022-09-21T05:40:59.468Z,326.12
2022-09-21T05:41:59.511Z,326.12
2022-09-21T05:42:59.487Z,326.12
2022-09-21T05:43:59.470Z,326.12
2022-09-21T05:44:59.479Z,326.12
2022-09-21T05:45:59.513Z,326.12
2022-09-21T05:46:59.478Z,326.12
2022-09-21T05:47:59.488Z,326.12
2022-09-21T05:48:59.487Z,326.12
2022-09-21T05:49:59.482Z,326.12
2022-09-21T05:50:59.479Z,326.12
2022-09-21T05:51:59.489Z,326.12
2022-09-21T05:52:59.487Z,326.12
2022-09-21T05:53:59.481Z,326.12
2022-09-21T05:54:59.492Z,326.12
2022-09-21T05:55:59.499Z,326.12
2022-09-21T05:56:59.497Z,326.12
2022-09-21T05:57:59.517Z,326.12
2022-09-21T05:58:59.488Z,326.12
2022-09-21T05:59:59.489Z,326.12
2022-09-21T06:00:59.545Z,326.12
2022-09-21T06:01:59.493Z,326.12
2022-09-21T06:02:59.492Z,326.12
2022-09-21T06:03:59.499Z,326.12
2022-09-21T06:04:59.504Z,326.12
2022-09-21T06:05:59.495Z,326.12
2022-09-21T06:06:59.499Z,326.12
2022-09-21T06:07:59.486Z,326.12
2022-09-21T06:08:59.503Z,326.12
2022-09-21T06:09:59.502Z,326.12
2022-09-21T06:10:59.515Z,326.12
2022-09-21T06:11:59.508Z,326.12
2022-09-21T06:12:59.510Z,326.12
2022-09-21T06:13:59.537Z,326.12
2022-09-21T06:14:59.505Z,326.12
2022-09-21T06:15:59.505Z,326.12
2022-09-21T06:16:59.531Z,326.12
2022-09-21T06:17:59.513Z,326.12
2022-09-21T06:18:59.511Z,326.12
2022-09-21T06:19:59.509Z,326.12
2022-09-21T06:20:59.508Z,326.12
2022-09-21T06:21:59.514Z,326.12
2022-09-21T06:22:59.511Z,326.12
2022-09-21T06:23:59.518Z,326.12
2022-09-21T06:24:59.518Z,326.12
2022-09-21T06:25:59.524Z,326.12
2022-09-21T06:26:59.523Z,326.12
2022-09-21T06:27:59.519Z,326.12
2022-09-21T06:28:59.516Z,326.12
2022-09-21T06:29:59.542Z,326.12
2022-09-21T06:30:59.583Z,326.12
2022-09-21T06:31:59.520Z,326.12
2022-09-21T06:32:59.524Z,326.12
2022-09-21T06:33:59.520Z,326.12
2022-09-21T06:34:59.531Z,326.12
2022-09-21T06:35:59.522Z,326.12
2022-09-21T06:36:59.529Z,326.12
2022-09-21T06:37:59.533Z,326.12
2022-09-21T06:38:59.528Z,326.12
2022-09-21T06:39:59.576Z,326.12
2022-09-21T06:40:59.529Z,326.12
2022-09-21T06:41:59.530Z,326.12
2022-09-21T06:42:59.530Z,326.12
2022-09-21T06:43:59.527Z,326.12
2022-09-21T06:44:59.531Z,326.12
2022-09-21T06:45:59.603Z,326.12
2022-09-21T06:46:59.527Z,326.12
2022-09-21T06:47:59.525Z,326.12
2022-09-21T06:48:59.526Z,326.12
2022-09-21T06:49:59.532Z,326.12
2022-09-21T06:50:59.524Z,326.12
2022-09-21T06:51:59.531Z,326.12
2022-09-21T06:52:59.523Z,326.12
2022-09-21T06:53:59.532Z,326.12
2022-09-21T06:54:59.536Z,326.12
2022-09-21T06:55:59.535Z,326.12
2022-09-21T06:57:00.237Z,326.12
2022-09-21T06:57:59.529Z,326.12
2022-09-21T06:58:59.534Z,326.12
2022-09-21T06:59:59.537Z,326.12
2022-09-21T07:00:59.627Z,326.12
2022-09-21T07:01:59.706Z,326.12
2022-09-21T07:02:59.532Z,326.12
2022-09-21T07:03:59.538Z,326.12
2022-09-21T07:04:59.531Z,326.12
2022-09-21T07:05:59.533Z,326.12
2022-09-21T07:07:02.062Z,326.12
2022-09-21T07:07:59.678Z,326.12
2022-09-21T07:10:07.530Z,326.12
2022-09-21T07:10:59.538Z,326.12
2022-09-21T07:11:59.543Z,326.12
2022-09-21T07:12:59.545Z,326.12
2022-09-21T07:13:59.534Z,326.12
2022-09-21T07:14:59.543Z,326.12
2022-09-21T07:15:59.539Z,326.12
2022-09-21T07:16:59.533Z,326.12
2022-09-21T07:18:06.666Z,326.12
2022-09-21T07:19:09.839Z,326.12
2022-09-21T07:19:59.542Z,326.12
2022-09-21T07:20:59.541Z,326.12
2022-09-21T07:21:59.541Z,326.12
2022-09-21T07:22:59.552Z,326.12
2022-09-21T07:23:59.542Z,326.12
2022-09-21T07:24:59.550Z,326.12
2022-09-21T07:25:59.545Z,326.12
2022-09-21T07:26:59.541Z,326.12
2022-09-21T07:27:59.545Z,326.12
2022-09-21T07:28:59.543Z,326.12
2022-09-21T07:29:59.551Z,326.12
2022-09-21T07:30:59.549Z,326.12
2022-09-21T07:31:59.591Z,326.12
2022-09-21T07:32:59.554Z,326.12
2022-09-21T07:33:59.581Z,326.12
2022-09-21T07:34:59.557Z,326.12
2022-09-21T07:35:59.567Z,326.12
2022-09-21T07:36:59.559Z,326.12
2022-09-21T07:37:59.563Z,326.12
2022-09-21T07:38:59.571Z,326.12
2022-09-21T07:39:59.612Z,326.12
2022-09-21T07:40:59.573Z,326.12
2022-09-21T07:41:59.569Z,326.12
2022-09-21T07:42:59.576Z,326.12
2022-09-21T07:43:59.573Z,326.12
2022-09-21T07:45:05.193Z,326.12
2022-09-21T07:45:59.610Z,326.12
2022-09-21T07:46:59.579Z,326.12
2022-09-21T07:47:59.570Z,326.12
2022-09-21T07:48:59.581Z,326.12
2022-09-21T07:49:59.594Z,326.12
2022-09-21T07:50:59.584Z,326.12
2022-09-21T07:52:03.820Z,326.12
2022-09-21T07:52:59.589Z,326.12
2022-09-21T07:53:59.578Z,326.12
2022-09-21T07:54:59.589Z,326.12
2022-09-21T07:55:59.604Z,326.12
2022-09-21T07:56:59.590Z,326.12
2022-09-21T07:57:59.590Z,326.12
2022-09-21T07:58:59.595Z,326.12
2022-09-21T07:59:59.591Z,326.12
2022-09-21T08:00:59.609Z,326.12
2022-09-21T08:01:59.618Z,326.12
2022-09-21T08:02:59.600Z,326.12
2022-09-21T08:03:59.611Z,326.12
2022-09-21T08:04:59.618Z,326.12
2022-09-21T08:05:59.879Z,326.12
2022-09-21T08:06:59.612Z,326.12
2022-09-21T08:07:59.600Z,326.12
2022-09-21T08:08:59.618Z,326.12
2022-09-21T08:09:59.612Z,326.12
2022-09-21T08:10:59.612Z,326.12
2022-09-21T08:11:59.612Z,326.12
2022-09-21T08:12:59.609Z,326.12
2022-09-21T08:13:59.619Z,326.12
2022-09-21T08:14:59.620Z,326.12
2022-09-21T08:15:59.803Z,326.12
2022-09-21T08:16:59.622Z,326.12
2022-09-21T08:17:59.615Z,326.12
2022-09-21T08:18:59.614Z,326.12
2022-09-21T08:19:59.634Z,326.12
2022-09-21T08:20:59.631Z,326.12
2022-09-21T08:21:59.645Z,326.12
2022-09-21T08:22:59.622Z,352.94
2022-09-21T08:23:59.621Z,282.35
2022-09-21T08:24:59.636Z,225.88
2022-09-21T08:25:59.626Z,225.88
2022-09-21T08:26:59.629Z,225.88
2022-09-21T08:27:59.631Z,225.88
2022-09-21T08:28:59.641Z,225.88
2022-09-21T08:29:59.654Z,225.88
2022-09-21T08:30:59.637Z,225.88
2022-09-21T08:31:59.663Z,225.88
2022-09-21T08:32:59.646Z,225.88
2022-09-21T08:33:59.639Z,225.88
2022-09-21T08:34:59.646Z,225.88
2022-09-21T08:35:59.647Z,225.88
2022-09-21T08:36:59.652Z,225.88
2022-09-21T08:37:59.717Z,225.88
2022-09-21T08:38:59.655Z,21.18
2022-09-21T08:39:59.695Z,21.18
2022-09-21T08:40:59.659Z,2.82
2022-09-21T08:41:59.668Z,114.35
2022-09-21T08:42:59.657Z,149.65
2022-09-21T08:43:59.662Z,168
2022-09-21T08:44:59.668Z,138.35
2022-09-21T08:45:59.666Z,115.76
2022-09-21T08:46:59.731Z,77.65
2022-09-21T08:47:59.665Z,49.41
2022-09-21T08:48:59.669Z,87.53
2022-09-21T08:49:59.679Z,87.53
2022-09-21T08:50:59.671Z,87.53
2022-09-21T08:51:59.668Z,186.35
2022-09-21T08:52:59.671Z,124.24
2022-09-21T08:53:59.702Z,180.71
2022-09-21T08:54:59.686Z,180.71
2022-09-21T08:55:59.682Z,186.35
2022-09-21T08:57:06.533Z,183.53
2022-09-21T08:57:59.683Z,183.53
2022-09-21T08:58:59.684Z,166.59
2022-09-21T08:59:59.687Z,175.06
2022-09-21T09:01:02.432Z,179.29
2022-09-21T09:01:59.753Z,153.88
2022-09-21T09:02:59.688Z,153.88
2022-09-21T09:04:02.128Z,153.88
2022-09-21T09:04:59.688Z,73.41
2022-09-21T09:05:59.691Z,132.71
2022-09-21T09:06:59.691Z,125.65
2022-09-21T09:07:59.697Z,125.65
2022-09-21T09:08:59.694Z,125.65
2022-09-21T09:09:59.721Z,125.65
2022-09-21T09:10:59.699Z,125.65
2022-09-21T09:11:59.705Z,125.65
2022-09-21T09:12:59.698Z,125.65
2022-09-21T09:13:59.698Z,357.18
2022-09-21T09:14:59.693Z,16.94
2022-09-21T09:15:59.728Z,19.76
2022-09-21T09:16:59.701Z,304.94
2022-09-21T09:17:59.709Z,303.53
2022-09-21T09:18:59.711Z,52.24
2022-09-21T09:19:59.718Z,52.24
2022-09-21T09:20:59.712Z,52.24
2022-09-21T09:21:59.708Z,52.24
2022-09-21T09:22:59.722Z,300.71
2022-09-21T09:23:59.716Z,266.82
2022-09-21T09:24:59.712Z,286.59
2022-09-21T09:25:59.743Z,306.35
2022-09-21T09:26:59.722Z,302.12
2022-09-21T09:27:59.719Z,293.65
2022-09-21T09:28:59.716Z,297.88
2022-09-21T09:30:03.105Z,280.94
2022-09-21T09:30:59.738Z,273.88
2022-09-21T09:31:59.716Z,289.41
2022-09-21T09:32:59.719Z,290.82
2022-09-21T09:33:59.716Z,276.71
2022-09-21T09:34:59.712Z,247.06
2022-09-21T09:35:59.719Z,184.94
2022-09-21T09:37:00.107Z,184.94
2022-09-21T09:37:59.717Z,184.94
2022-09-21T09:38:59.729Z,184.94
2022-09-21T09:39:59.774Z,184.94
2022-09-21T09:40:59.729Z,184.94
2022-09-21T09:41:59.740Z,184.94
2022-09-21T09:43:03.907Z,184.94
2022-09-21T09:43:59.725Z,184.94
2022-09-21T09:44:59.729Z,184.94
2022-09-21T09:45:59.729Z,184.94
2022-09-21T09:46:59.817Z,184.94
2022-09-21T09:47:59.731Z,184.94
2022-09-21T09:48:59.788Z,223.06
2022-09-21T09:49:59.736Z,223.06
2022-09-21T09:50:59.733Z,223.06
2022-09-21T09:51:59.727Z,279.53
2022-09-21T09:52:59.739Z,272.47
2022-09-21T09:53:59.733Z,247.06
2022-09-21T09:54:59.733Z,247.06
2022-09-21T09:55:59.750Z,247.06
2022-09-21T09:56:59.749Z,247.06
2022-09-21T09:57:59.784Z,247.06
2022-09-21T09:58:59.773Z,247.06
2022-09-21T09:59:59.738Z,247.06
2022-09-21T10:00:59.753Z,247.06
2022-09-21T10:01:59.781Z,247.06
2022-09-21T10:02:59.751Z,247.06
2022-09-21T10:03:59.799Z,247.06
2022-09-21T10:04:59.757Z,295.06
2022-09-21T10:05:59.755Z,292.24
2022-09-21T10:06:59.755Z,288
2022-09-21T10:07:59.754Z,288
2022-09-21T10:08:59.770Z,288
2022-09-21T10:09:59.759Z,288
2022-09-21T10:10:59.767Z,288
2022-09-21T10:11:59.764Z,288
2022-09-21T10:12:59.772Z,288
2022-09-21T10:13:59.790Z,114.35
2022-09-21T10:14:59.756Z,66.35
2022-09-21T10:15:59.795Z,66.35
2022-09-21T10:16:59.769Z,66.35
2022-09-21T10:17:59.766Z,156.71
2022-09-21T10:18:59.762Z,134.12
2022-09-21T10:19:59.759Z,146.82
2022-09-21T10:20:59.765Z,146.82
2022-09-21T10:21:59.762Z,146.82
2022-09-21T10:22:59.787Z,146.82
2022-09-21T10:23:59.774Z,146.82
2022-09-21T10:24:59.770Z,146.82
2022-09-21T10:25:59.766Z,18.35
2022-09-21T10:26:59.767Z,62.12
2022-09-21T10:27:59.774Z,72
2022-09-21T10:28:59.774Z,74.82
2022-09-21T10:29:59.793Z,88.94
2022-09-21T10:30:59.824Z,98.82
2022-09-21T10:31:59.772Z,98.82
2022-09-21T10:32:59.785Z,98.82
2022-09-21T10:33:59.771Z,98.82
2022-09-21T10:34:59.779Z,98.82
2022-09-21T10:35:59.776Z,98.82
2022-09-21T10:36:59.780Z,98.82
2022-09-21T10:37:59.791Z,336
2022-09-21T10:38:59.782Z,336
2022-09-21T10:39:59.821Z,337.41
2022-09-21T10:40:59.781Z,337.41
2022-09-21T10:41:59.786Z,337.41
2022-09-21T10:42:59.792Z,337.41
2022-09-21T10:43:59.789Z,337.41
2022-09-21T10:44:59.794Z,337.41
2022-09-21T10:45:59.867Z,285.18
2022-09-21T10:46:59.817Z,266.82
2022-09-21T10:47:59.795Z,64.94
2022-09-21T10:48:59.799Z,46.59
2022-09-21T10:49:59.795Z,72
2022-09-21T10:50:59.805Z,38.12
2022-09-21T10:51:59.801Z,14.12
2022-09-21T10:52:59.804Z,14.12
2022-09-21T10:53:59.873Z,14.12
2022-09-21T10:54:59.805Z,14.12
2022-09-21T10:56:14.828Z,14.12
2022-09-21T10:56:59.813Z,14.12
2022-09-21T10:57:59.799Z,14.12
2022-09-21T10:58:59.807Z,45.18
2022-09-21T10:59:59.800Z,39.53
2022-09-21T11:00:59.807Z,5.65
2022-09-21T11:01:59.947Z,18.35
2022-09-21T11:02:59.870Z,62.12
2022-09-21T11:03:59.805Z,31.06
2022-09-21T11:04:59.799Z,293.65
2022-09-21T11:05:59.806Z,304.94
2022-09-21T11:06:59.801Z,292.24
2022-09-21T11:07:59.812Z,282.35
2022-09-21T11:08:59.810Z,319.06
2022-09-21T11:09:59.806Z,323.29
2022-09-21T11:10:59.810Z,320.47
2022-09-21T11:11:59.810Z,307.76
2022-09-21T11:12:59.807Z,278.12
2022-09-21T11:13:59.818Z,269.65
2022-09-21T11:14:59.813Z,211.76
2022-09-21T11:15:59.832Z,269.65
2022-09-21T11:16:59.819Z,259.76
2022-09-21T11:17:59.836Z,306.35
2022-09-21T11:18:59.817Z,289.41
2022-09-21T11:19:59.827Z,278.12
2022-09-21T11:20:59.813Z,293.65
2022-09-21T11:21:59.814Z,303.53
2022-09-21T11:22:59.815Z,297.88
2022-09-21T11:23:59.817Z,286.59
2022-09-21T11:24:59.819Z,36.71
2022-09-21T11:25:59.821Z,299.29
2022-09-21T11:26:59.828Z,354.35
2022-09-21T11:27:59.820Z,275.29
2022-09-21T11:28:59.829Z,275.29
2022-09-21T11:29:59.828Z,275.29
2022-09-21T11:30:59.881Z,275.29
2022-09-21T11:32:02.589Z,275.29
2022-09-21T11:32:59.826Z,264
2022-09-21T11:33:59.857Z,293.65
2022-09-21T11:34:59.826Z,269.65
2022-09-21T11:35:59.825Z,231.53
2022-09-21T11:36:59.822Z,136.94
2022-09-21T11:37:59.827Z,84.71
2022-09-21T11:38:59.826Z,84.71
2022-09-21T11:39:59.853Z,110.12
2022-09-21T11:40:59.826Z,115.76
2022-09-21T11:41:59.820Z,146.82
2022-09-21T11:42:59.825Z,190.59
2022-09-21T11:44:02.005Z,190.59
2022-09-21T11:44:59.832Z,207.53
2022-09-21T11:45:59.865Z,299.29
2022-09-21T11:46:59.820Z,316.24
2022-09-21T11:47:59.822Z,312
2022-09-21T11:48:59.821Z,289.41
2022-09-21T11:50:19.384Z,285.18
2022-09-21T11:50:59.829Z,285.18
2022-09-21T11:51:59.830Z,290.82
2022-09-21T11:52:59.826Z,176.47
2022-09-21T11:53:59.828Z,141.18
2022-09-21T11:54:59.825Z,141.18
2022-09-21T11:55:59.828Z,192
2022-09-21T11:56:59.827Z,282.35
2022-09-21T11:57:59.833Z,238.59
2022-09-21T11:58:59.864Z,303.53
2022-09-21T11:59:59.828Z,293.65
2022-09-21T12:00:59.834Z,52.24
2022-09-21T12:01:59.870Z,320.47
2022-09-21T12:02:59.833Z,302.12
2022-09-21T12:03:59.843Z,296.47
2022-09-21T12:04:59.826Z,299.29
2022-09-21T12:05:59.854Z,328.94
2022-09-21T12:06:59.832Z,302.12
2022-09-21T12:07:59.832Z,285.18
2022-09-21T12:08:59.832Z,304.94
2022-09-21T12:09:59.830Z,295.06
2022-09-21T12:10:59.841Z,316.24
2022-09-21T12:11:59.836Z,321.88
2022-09-21T12:12:59.846Z,288
2022-09-21T12:13:59.845Z,295.06
2022-09-21T12:14:59.921Z,295.06
2022-09-21T12:15:59.848Z,292.24
2022-09-21T12:16:59.915Z,265.41
2022-09-21T12:17:59.846Z,286.59
2022-09-21T12:18:59.850Z,271.06
2022-09-21T12:19:59.865Z,285.18
2022-09-21T12:20:59.863Z,288
2022-09-21T12:21:59.883Z,293.65
2022-09-21T12:22:59.856Z,228.71
2022-09-21T12:23:59.868Z,228.71
2022-09-21T12:24:59.861Z,307.76
2022-09-21T12:25:59.862Z,295.06
2022-09-21T12:26:59.873Z,265.41
2022-09-21T12:27:59.869Z,285.18
2022-09-21T12:28:59.877Z,296.47
2022-09-21T12:29:59.861Z,265.41
2022-09-21T12:31:00.858Z,286.59
2022-09-21T12:31:59.861Z,320.47
2022-09-21T12:32:59.870Z,352.94
2022-09-21T12:33:59.879Z,304.94